createdAt,value
2023-04-20T00:07:48.784Z,13.70
2023-04-20T00:17:54.172Z,13.80
2023-04-20T00:27:59.908Z,14.50
2023-04-20T00:38:04.120Z,13.30
2023-04-20T00:48:08.155Z,13.70
2023-04-20T00:58:12.973Z,13.70
2023-04-20T01:08:16.493Z,14.80
2023-04-20T01:18:21.181Z,15.60
2023-04-20T01:28:28.666Z,17.50
2023-04-20T01:38:34.869Z,15.00
2023-04-20T01:48:41.063Z,13.90
2023-04-20T01:58:48.138Z,13.70
2023-04-20T02:08:52.839Z,14.10
2023-04-20T02:18:56.786Z,19.40
2023-04-20T02:29:02.298Z,20.80
2023-04-20T02:39:07.897Z,14.70
2023-04-20T02:49:11.465Z,17.30
2023-04-20T02:59:20.696Z,17.80
2023-04-20T03:09:52.621Z,16.20
2023-04-20T03:19:59.194Z,15.90
2023-04-20T03:30:02.847Z,14.80
2023-04-20T03:40:11.382Z,15.30
2023-04-20T03:50:15.013Z,17.40
2023-04-20T04:00:23.948Z,18.00
2023-04-20T04:10:34.158Z,15.10
2023-04-20T04:20:37.969Z,14.40
2023-04-20T04:30:42.879Z,15.90
2023-04-20T04:40:47.034Z,16.50
2023-04-20T04:50:50.849Z,15.10
2023-04-20T05:00:54.434Z,15.30
2023-04-20T05:11:01.664Z,13.90
2023-04-20T05:21:05.370Z,13.90
2023-04-20T05:31:08.949Z,13.10
2023-04-20T05:41:14.694Z,18.40
2023-04-20T05:51:19.163Z,17.20
2023-04-20T06:01:22.941Z,17.30
2023-04-20T06:11:26.709Z,13.10
2023-04-20T06:21:34.900Z,14.50
2023-04-20T06:31:39.750Z,13.20
2023-04-20T06:41:45.608Z,14.40
2023-04-20T06:51:51.273Z,13.40
2023-04-20T07:01:54.907Z,12.50
2023-04-20T07:11:59.067Z,12.10
2023-04-20T07:22:05.071Z,13.00
2023-04-20T07:32:08.694Z,13.30
2023-04-20T07:42:12.383Z,12.50
2023-04-20T07:52:18.547Z,14.00
2023-04-20T08:02:22.323Z,17.30
2023-04-20T08:12:27.448Z,15.20
2023-04-20T08:22:33.890Z,11.80
2023-04-20T08:32:39.684Z,14.80
2023-04-20T08:42:43.454Z,11.40
2023-04-20T08:52:47.188Z,13.30
2023-04-20T09:02:54.079Z,11.90
2023-04-20T09:12:57.715Z,11.20
2023-04-20T09:23:17.283Z,10.60
2023-04-20T09:33:28.703Z,12.60
2023-04-20T09:43:33.741Z,11.80
2023-04-20T09:53:41.245Z,12.10
2023-04-20T10:03:46.146Z,11.10
2023-04-20T10:13:52.035Z,11.20
2023-04-20T10:23:59.130Z,11.90
2023-04-20T10:34:02.710Z,11.70
2023-04-20T11:02:57.632Z,15.40
2023-04-20T11:13:01.646Z,13.70
2023-04-20T11:23:06.190Z,13.00
2023-04-20T11:33:11.131Z,13.40
2023-04-20T11:43:15.388Z,14.50
2023-04-20T11:53:19.021Z,13.30
2023-04-20T12:03:23.020Z,13.60
2023-04-20T12:13:26.813Z,16.50
2023-04-20T12:23:30.850Z,15.50
2023-04-20T12:33:34.449Z,13.20
2023-04-20T12:43:37.978Z,15.30
2023-04-20T12:53:42.201Z,13.20
2023-04-20T13:03:46.514Z,13.00
2023-04-20T13:13:50.442Z,13.00
2023-04-20T13:23:54.871Z,13.30
2023-04-20T13:33:59.923Z,13.20
2023-04-20T13:44:03.862Z,13.00
2023-04-20T13:54:07.741Z,11.40
2023-04-20T14:04:11.590Z,11.70
2023-04-20T14:14:15.504Z,11.60
2023-04-20T14:24:19.784Z,10.90
2023-04-20T14:34:23.548Z,13.80
2023-04-20T14:44:27.118Z,13.40
2023-04-20T14:54:30.752Z,13.80
2023-04-20T15:04:34.507Z,15.90
2023-04-20T15:14:38.343Z,14.20
2023-04-20T15:24:42.799Z,14.80
2023-04-20T15:34:46.392Z,16.80
2023-04-20T15:44:50.053Z,16.90
2023-04-20T15:54:53.691Z,18.80
2023-04-20T16:04:57.573Z,15.30
2023-04-20T16:15:02.413Z,14.40
2023-04-20T16:25:07.089Z,13.60
2023-04-20T16:35:10.844Z,12.50
2023-04-20T16:45:14.750Z,13.80
2023-04-20T16:55:18.442Z,12.80
2023-04-20T17:05:22.155Z,11.50
2023-04-20T17:15:26.253Z,12.60
2023-04-20T17:25:29.795Z,17.50
2023-04-20T17:35:34.082Z,14.00
2023-04-20T17:45:39.515Z,18.70
2023-04-20T17:55:43.229Z,20.90
2023-04-20T18:05:47.096Z,28.30
2023-04-20T18:15:51.004Z,25.60
2023-04-20T18:25:54.672Z,23.80
2023-04-20T18:35:58.288Z,28.40
2023-04-20T18:46:01.917Z,29.30
2023-04-20T18:56:05.484Z,52.30
2023-04-20T19:06:09.112Z,31.40
2023-04-20T19:16:13.354Z,33.30
2023-04-20T19:26:18.276Z,60.90
2023-04-20T19:36:21.917Z,46.50
2023-04-20T19:46:25.692Z,70.00
2023-04-20T19:56:29.368Z,53.90
2023-04-20T20:06:33.087Z,36.20
2023-04-20T20:16:36.679Z,21.10
2023-04-20T20:26:40.364Z,22.60
2023-04-20T20:36:46.004Z,18.50
2023-04-20T20:46:49.565Z,15.60
2023-04-20T20:56:53.523Z,15.30
2023-04-20T21:06:57.286Z,19.40
2023-04-20T21:17:01.315Z,17.40
2023-04-20T21:27:05.343Z,23.10
2023-04-20T21:37:09.533Z,28.00
2023-04-20T21:47:13.373Z,20.00
2023-04-20T21:57:17.251Z,29.40
2023-04-20T22:07:21.376Z,38.80
2023-04-20T22:17:25.220Z,21.80
2023-04-20T22:27:29.308Z,23.60
2023-04-20T22:37:33.158Z,25.50
2023-04-20T22:47:38.009Z,22.00
2023-04-20T22:57:41.891Z,16.60
2023-04-20T23:07:45.836Z,20.00
2023-04-20T23:17:49.528Z,19.60
2023-04-20T23:27:53.279Z,18.10
2023-04-20T23:37:58.375Z,17.90
2023-04-20T23:48:02.118Z,19.20
2023-04-20T23:58:06.228Z,20.40
